Terminal Aerodrome Forecast
Issued by NWS Jackson, MS

Current Version | Previous Version | Text Only | Print | Product List | Glossary On
Versions: 1 2 3 4 5 6 7 8 9 10 11 12 13 14 15 16
756
FTUS44 KMEG 251732
TAFTUP
TAF
KTUP 251732Z 2518/2618 33009G16KT P6SM SKC
     FM252200 34007KT P6SM SKC
     FM260100 VRB02KT P6SM SKC
     FM261500 14008KT P6SM FEW250=

USA.gov is the U.S. government's official web portal to all federal, state and local government web resources and services.